Decoded Metar for LEDA (LLEIDA in SPAIN) (IATA:ILD) | Meteo·Mobile Aviation Weather
aviador You're here:

LEDA Decoded Metar

LLEIDA in SPAIN
Report Time2019-09-23 02:00:00
UTC Time2019-09-23 02:32:27
Flight Rules vfr VFR
Wind230° at 06 kt
W.Decomp.*RWY 31: 1.0 kt HW 5.9 kt LCW
Visibility9999 m
Phenomena:N/A
Clouds:N/A
Expected CloudBase > 1,600 ft AGL from Temp-Dew spread
CeilingNone
Temp14°C (ISA +1)
Dew Point10°C (77% RH)
AAT11.9°C
QNH1017 hPa
Density Alt1,339 ft
Elevation1,152 ft
Report Wrong Elevation
Raw Report
LEDA 230200Z AUTO 23006KT 9999 NCD 14/10 Q1017=

Extra information for LEDA:More info

Metar Taf Metar & Taf Last 4 Metars F.Rules Stats Wind Profile Meteogram Temp Stats Airport Information Weather charts Add Link Nearby VenuesMetar ALERT Operation Metar Decoded Social comments